DAL897 KSLC-KSEA
Flight info
| Callsign | DAL897 |
|---|---|
| Flight time | 1h 40m |
| Altitude | 36000 |
| Route | CGULL1 TWF PDT CHINS5 |
| Aircraft | A321/M-SDE3FGHIRWY/LB1 |
Departure
| Time | 2026-05-07 01:05 |
|---|---|
| Airport | Salt Lake City International Airport (KSLC) |
Arrival
| Time | 2026-05-07 02:46 |
|---|---|
| Airport | Seattle–Tacoma International Airport (KSEA) |
| Time | Latitude | Longitude | Altitude | Speed | Heading |
|---|---|---|---|---|---|
| 2026-05-07 00:33 | 40.78489 | -111.98877 | 4235 ft | 0 kts | 354° |
| 2026-05-07 00:57 | 40.78477 | -111.98875 | 4234 ft | 4 kts | 353° |
| 2026-05-07 00:57 | 40.78451 | -111.98869 | 4234 ft | 4 kts | 336° |
| 2026-05-07 00:57 | 40.78432 | -111.98851 | 4233 ft | 1 kts | 303° |
| 2026-05-07 00:59 | 40.78432 | -111.98853 | 4233 ft | 1 kts | 300° |
| 2026-05-07 00:59 | 40.78433 | -111.98877 | 4235 ft | 5 kts | 270° |
| 2026-05-07 01:00 | 40.78431 | -111.98935 | 4235 ft | 6 kts | 265° |
| 2026-05-07 01:00 | 40.78428 | -111.98977 | 4235 ft | 5 kts | 264° |
| 2026-05-07 01:00 | 40.78423 | -111.99046 | 4235 ft | 10 kts | 265° |
| 2026-05-07 01:00 | 40.78415 | -111.99150 | 4235 ft | 11 kts | 264° |
| 2026-05-07 01:01 | 40.78408 | -111.99241 | 4235 ft | 9 kts | 266° |
| 2026-05-07 01:01 | 40.78375 | -111.99326 | 4233 ft | 14 kts | 203° |
| 2026-05-07 01:01 | 40.78275 | -111.99323 | 4235 ft | 14 kts | 174° |
| 2026-05-07 01:01 | 40.78167 | -111.99308 | 4235 ft | 20 kts | 176° |
| 2026-05-07 01:02 | 40.78021 | -111.99271 | 4262 ft | 21 kts | 166° |
| 2026-05-07 01:02 | 40.77880 | -111.99257 | 4262 ft | 19 kts | 176° |
| 2026-05-07 01:02 | 40.77751 | -111.99240 | 4262 ft | 18 kts | 174° |
| 2026-05-07 01:02 | 40.77636 | -111.99205 | 4262 ft | 16 kts | 161° |
| 2026-05-07 01:03 | 40.77530 | -111.99194 | 4261 ft | 12 kts | 189° |
| 2026-05-07 01:03 | 40.77521 | -111.99197 | 4261 ft | 0 kts | 192° |
| 2026-05-07 01:03 | 40.77510 | -111.99208 | 4261 ft | 5 kts | 232° |
| 2026-05-07 01:03 | 40.77497 | -111.99292 | 4262 ft | 12 kts | 267° |
| 2026-05-07 01:04 | 40.77512 | -111.99397 | 4262 ft | 12 kts | 285° |
| 2026-05-07 01:04 | 40.77515 | -111.99494 | 4263 ft | 10 kts | 269° |
| 2026-05-07 01:04 | 40.77575 | -111.99556 | 4264 ft | 20 kts | 351° |
| 2026-05-07 01:04 | 40.77933 | -111.99599 | 4261 ft | 86 kts | 355° |
| 2026-05-07 01:05 | 40.78722 | -111.99691 | 4237 ft | 139 kts | 355° |
| 2026-05-07 01:05 | 40.79836 | -111.99820 | 4238 ft | 180 kts | 354° |
| 2026-05-07 01:05 | 40.81080 | -111.99977 | 4903 ft | 174 kts | 352° |
| 2026-05-07 01:05 | 40.82275 | -112.00171 | 5598 ft | 173 kts | 345° |
| 2026-05-07 01:06 | 40.83292 | -112.00979 | 6098 ft | 176 kts | 311° |
| 2026-05-07 01:06 | 40.84073 | -112.02314 | 6256 ft | 193 kts | 306° |
| 2026-05-07 01:06 | 40.84918 | -112.03799 | 6391 ft | 208 kts | 307° |
| 2026-05-07 01:06 | 40.85815 | -112.05371 | 6513 ft | 223 kts | 306° |
| 2026-05-07 01:07 | 40.86790 | -112.07080 | 6625 ft | 244 kts | 306° |
| 2026-05-07 01:07 | 40.87864 | -112.08961 | 6830 ft | 267 kts | 307° |
| 2026-05-07 01:07 | 40.88991 | -112.10927 | 7454 ft | 273 kts | 308° |
| 2026-05-07 01:07 | 40.90146 | -112.12944 | 8218 ft | 276 kts | 309° |
| 2026-05-07 01:08 | 40.91313 | -112.14983 | 8778 ft | 279 kts | 309° |
| 2026-05-07 01:08 | 40.92478 | -112.17022 | 8971 ft | 276 kts | 309° |
| 2026-05-07 01:08 | 40.93643 | -112.19063 | 9642 ft | 278 kts | 309° |
| 2026-05-07 01:08 | 40.94815 | -112.21121 | 10273 ft | 287 kts | 309° |
| 2026-05-07 01:09 | 40.96069 | -112.23317 | 10443 ft | 311 kts | 309° |
| 2026-05-07 01:09 | 40.97420 | -112.25690 | 10576 ft | 334 kts | 309° |
| 2026-05-07 01:09 | 40.98857 | -112.28217 | 10816 ft | 350 kts | 309° |
| 2026-05-07 01:09 | 41.00319 | -112.30793 | 11374 ft | 356 kts | 309° |
| 2026-05-07 01:10 | 41.01817 | -112.33429 | 12038 ft | 359 kts | 309° |
| 2026-05-07 01:10 | 41.03322 | -112.36088 | 12720 ft | 362 kts | 309° |
| 2026-05-07 01:10 | 41.04837 | -112.38772 | 13393 ft | 365 kts | 308° |
| 2026-05-07 01:10 | 41.06418 | -112.41417 | 14013 ft | 367 kts | 314° |
| 2026-05-07 01:11 | 41.08299 | -112.43661 | 14577 ft | 368 kts | 324° |
| 2026-05-07 01:11 | 41.10454 | -112.45504 | 15141 ft | 370 kts | 329° |
| 2026-05-07 01:11 | 41.12679 | -112.47356 | 15703 ft | 373 kts | 329° |
| 2026-05-07 01:11 | 41.14881 | -112.49203 | 16257 ft | 376 kts | 329° |
| 2026-05-07 01:12 | 41.17093 | -112.51074 | 16787 ft | 379 kts | 328° |
| 2026-05-07 01:12 | 41.19247 | -112.53066 | 17340 ft | 382 kts | 325° |
| 2026-05-07 01:12 | 41.21380 | -112.55204 | 17879 ft | 385 kts | 324° |
| 2026-05-07 01:12 | 41.23492 | -112.57414 | 18396 ft | 388 kts | 323° |
| 2026-05-07 01:13 | 41.25618 | -112.59663 | 18854 ft | 390 kts | 323° |
| 2026-05-07 01:13 | 41.27693 | -112.61929 | 19306 ft | 393 kts | 319° |
| 2026-05-07 01:13 | 41.29590 | -112.64613 | 19769 ft | 397 kts | 314° |
| 2026-05-07 01:13 | 41.31449 | -112.67353 | 20231 ft | 399 kts | 315° |
| 2026-05-07 01:14 | 41.33297 | -112.70053 | 20702 ft | 400 kts | 315° |
| 2026-05-07 01:14 | 41.35188 | -112.72805 | 21183 ft | 402 kts | 315° |
| 2026-05-07 01:14 | 41.37082 | -112.75560 | 21657 ft | 403 kts | 315° |
| 2026-05-07 01:14 | 41.38983 | -112.78333 | 22095 ft | 405 kts | 315° |
| 2026-05-07 01:15 | 41.40868 | -112.81094 | 22529 ft | 408 kts | 315° |
| 2026-05-07 01:15 | 41.42764 | -112.83936 | 22958 ft | 411 kts | 314° |
| 2026-05-07 01:15 | 41.44648 | -112.86817 | 23374 ft | 413 kts | 314° |
| 2026-05-07 01:15 | 41.46532 | -112.89723 | 23777 ft | 415 kts | 314° |
| 2026-05-07 01:16 | 41.48424 | -112.92650 | 24128 ft | 417 kts | 314° |
| 2026-05-07 01:16 | 41.50325 | -112.95584 | 24495 ft | 419 kts | 314° |
| 2026-05-07 01:16 | 41.52240 | -112.98531 | 24848 ft | 421 kts | 314° |
| 2026-05-07 01:16 | 41.54165 | -113.01487 | 25199 ft | 422 kts | 314° |
| 2026-05-07 01:17 | 41.56095 | -113.04453 | 25549 ft | 424 kts | 314° |
| 2026-05-07 01:17 | 41.58010 | -113.07403 | 25857 ft | 426 kts | 314° |
| 2026-05-07 01:17 | 41.59960 | -113.10402 | 26188 ft | 428 kts | 314° |
| 2026-05-07 01:17 | 41.61921 | -113.13420 | 26464 ft | 430 kts | 314° |
| 2026-05-07 01:18 | 41.63888 | -113.16452 | 26771 ft | 433 kts | 314° |
| 2026-05-07 01:18 | 41.65858 | -113.19498 | 27131 ft | 434 kts | 314° |
| 2026-05-07 01:18 | 41.67838 | -113.22561 | 27464 ft | 435 kts | 313° |
| 2026-05-07 01:18 | 41.69825 | -113.25636 | 27800 ft | 436 kts | 313° |
| 2026-05-07 01:19 | 41.71805 | -113.28706 | 28250 ft | 434 kts | 313° |
| 2026-05-07 01:19 | 41.73743 | -113.31719 | 28689 ft | 432 kts | 313° |
| 2026-05-07 01:19 | 41.75705 | -113.34770 | 29122 ft | 431 kts | 313° |
| 2026-05-07 01:19 | 41.77660 | -113.37807 | 29542 ft | 429 kts | 313° |
| 2026-05-07 01:20 | 41.79602 | -113.40827 | 30032 ft | 426 kts | 314° |
| 2026-05-07 01:20 | 41.81541 | -113.43845 | 30429 ft | 424 kts | 313° |
| 2026-05-07 01:20 | 41.83440 | -113.46801 | 30781 ft | 422 kts | 313° |
| 2026-05-07 01:20 | 41.85350 | -113.49784 | 31142 ft | 421 kts | 313° |
| 2026-05-07 01:21 | 41.87261 | -113.52768 | 31496 ft | 420 kts | 313° |
| 2026-05-07 01:21 | 41.89171 | -113.55755 | 31896 ft | 418 kts | 313° |
| 2026-05-07 01:21 | 41.91059 | -113.58713 | 32288 ft | 417 kts | 313° |
| 2026-05-07 01:21 | 41.92926 | -113.61632 | 32683 ft | 415 kts | 313° |
| 2026-05-07 01:22 | 41.94805 | -113.64569 | 33074 ft | 414 kts | 314° |
| 2026-05-07 01:22 | 41.96678 | -113.67505 | 33439 ft | 413 kts | 313° |
| 2026-05-07 01:22 | 41.98543 | -113.70440 | 33804 ft | 412 kts | 313° |
| 2026-05-07 01:22 | 42.00402 | -113.73372 | 34161 ft | 411 kts | 313° |
| 2026-05-07 01:23 | 42.02252 | -113.76297 | 34455 ft | 410 kts | 313° |
| 2026-05-07 01:23 | 42.03478 | -113.78231 | 34633 ft | 410 kts | 313° |
| 2026-05-07 01:23 | 42.05936 | -113.82100 | 34986 ft | 409 kts | 313° |
| 2026-05-07 01:23 | 42.07784 | -113.85010 | 35283 ft | 408 kts | 313° |
| 2026-05-07 01:24 | 42.09624 | -113.87913 | 35579 ft | 407 kts | 313° |
| 2026-05-07 01:24 | 42.11460 | -113.90815 | 35881 ft | 406 kts | 313° |
| 2026-05-07 01:24 | 42.12696 | -113.92775 | 36017 ft | 406 kts | 313° |
| 2026-05-07 01:25 | 42.16330 | -113.98547 | 36086 ft | 404 kts | 313° |
| 2026-05-07 01:25 | 42.19975 | -114.04321 | 36074 ft | 403 kts | 313° |
| 2026-05-07 01:26 | 42.23600 | -114.10052 | 36073 ft | 404 kts | 313° |
| 2026-05-07 01:26 | 42.27246 | -114.15829 | 36062 ft | 404 kts | 313° |
| 2026-05-07 01:27 | 42.30891 | -114.21615 | 36064 ft | 404 kts | 313° |
| 2026-05-07 01:27 | 42.34526 | -114.27400 | 36065 ft | 404 kts | 313° |
| 2026-05-07 01:28 | 42.38175 | -114.33213 | 36058 ft | 404 kts | 313° |
| 2026-05-07 01:28 | 42.41789 | -114.38994 | 36115 ft | 404 kts | 313° |
| 2026-05-07 01:29 | 42.45417 | -114.44815 | 36117 ft | 404 kts | 313° |
| 2026-05-07 01:29 | 42.49171 | -114.50464 | 36115 ft | 402 kts | 319° |
| 2026-05-07 01:30 | 42.53254 | -114.55677 | 36114 ft | 402 kts | 319° |
| 2026-05-07 01:30 | 42.57301 | -114.60853 | 36104 ft | 402 kts | 319° |
| 2026-05-07 01:31 | 42.61374 | -114.66082 | 36061 ft | 402 kts | 319° |
| 2026-05-07 01:31 | 42.65417 | -114.71283 | 36064 ft | 402 kts | 319° |
| 2026-05-07 01:32 | 42.69487 | -114.76520 | 36060 ft | 402 kts | 318° |
| 2026-05-07 01:32 | 42.73544 | -114.81756 | 36055 ft | 401 kts | 318° |
| 2026-05-07 01:33 | 42.77593 | -114.86981 | 36049 ft | 401 kts | 319° |
| 2026-05-07 01:33 | 42.81625 | -114.92189 | 36044 ft | 400 kts | 318° |
| 2026-05-07 01:34 | 42.85672 | -114.97436 | 36046 ft | 400 kts | 318° |
| 2026-05-07 01:34 | 42.89692 | -115.02673 | 36081 ft | 399 kts | 318° |
| 2026-05-07 01:35 | 42.93685 | -115.07883 | 36069 ft | 399 kts | 318° |
| 2026-05-07 01:35 | 42.97708 | -115.13131 | 36057 ft | 399 kts | 318° |
| 2026-05-07 01:36 | 43.01693 | -115.18342 | 36047 ft | 398 kts | 318° |
| 2026-05-07 01:36 | 43.05698 | -115.23586 | 36039 ft | 399 kts | 318° |
| 2026-05-07 01:37 | 43.09701 | -115.28846 | 36031 ft | 399 kts | 318° |
| 2026-05-07 01:37 | 43.13710 | -115.34116 | 36032 ft | 399 kts | 318° |
| 2026-05-07 01:38 | 43.17691 | -115.39360 | 36030 ft | 398 kts | 318° |
| 2026-05-07 01:38 | 43.21694 | -115.44638 | 36030 ft | 399 kts | 318° |
| 2026-05-07 01:39 | 43.25691 | -115.49927 | 36027 ft | 399 kts | 318° |
| 2026-05-07 01:39 | 43.29689 | -115.55221 | 36027 ft | 399 kts | 318° |
| 2026-05-07 01:40 | 43.33690 | -115.60531 | 36024 ft | 399 kts | 318° |
| 2026-05-07 01:40 | 43.37674 | -115.65834 | 36026 ft | 399 kts | 318° |
| 2026-05-07 01:41 | 43.41659 | -115.71152 | 36024 ft | 399 kts | 317° |
| 2026-05-07 01:41 | 43.45613 | -115.76439 | 36020 ft | 398 kts | 317° |
| 2026-05-07 01:42 | 43.49597 | -115.81761 | 36023 ft | 398 kts | 317° |
| 2026-05-07 01:42 | 43.53600 | -115.87114 | 36025 ft | 398 kts | 317° |
| 2026-05-07 01:43 | 43.57568 | -115.92441 | 36028 ft | 398 kts | 317° |
| 2026-05-07 01:43 | 43.61501 | -115.97732 | 36004 ft | 397 kts | 317° |
| 2026-05-07 01:44 | 43.65456 | -116.03070 | 36008 ft | 397 kts | 317° |
| 2026-05-07 01:44 | 43.69408 | -116.08411 | 36011 ft | 397 kts | 317° |
| 2026-05-07 01:45 | 43.73355 | -116.13753 | 36008 ft | 396 kts | 317° |
| 2026-05-07 01:45 | 43.77275 | -116.19061 | 36008 ft | 396 kts | 317° |
| 2026-05-07 01:46 | 43.81222 | -116.24427 | 36009 ft | 397 kts | 317° |
| 2026-05-07 01:46 | 43.85150 | -116.29791 | 36012 ft | 396 kts | 317° |
| 2026-05-07 01:47 | 43.89073 | -116.35135 | 36006 ft | 397 kts | 317° |
| 2026-05-07 01:47 | 43.93011 | -116.40517 | 36007 ft | 397 kts | 317° |
| 2026-05-07 01:48 | 43.96945 | -116.45909 | 36003 ft | 397 kts | 317° |
| 2026-05-07 01:48 | 44.00874 | -116.51291 | 36012 ft | 397 kts | 317° |
| 2026-05-07 01:49 | 44.04800 | -116.56689 | 36019 ft | 397 kts | 317° |
| 2026-05-07 01:49 | 44.08703 | -116.62079 | 36016 ft | 397 kts | 317° |
| 2026-05-07 01:50 | 44.12625 | -116.67499 | 36015 ft | 397 kts | 317° |
| 2026-05-07 01:50 | 44.16527 | -116.72902 | 36022 ft | 397 kts | 317° |
| 2026-05-07 01:51 | 44.20448 | -116.78337 | 36021 ft | 396 kts | 317° |
| 2026-05-07 01:51 | 44.24343 | -116.83730 | 36026 ft | 396 kts | 317° |
| 2026-05-07 01:52 | 44.28238 | -116.89142 | 36032 ft | 396 kts | 317° |
| 2026-05-07 01:52 | 44.32144 | -116.94588 | 36034 ft | 396 kts | 316° |
| 2026-05-07 01:53 | 44.36036 | -117.00032 | 36034 ft | 396 kts | 316° |
| 2026-05-07 01:53 | 44.39912 | -117.05450 | 36036 ft | 396 kts | 316° |
| 2026-05-07 01:54 | 44.43814 | -117.10922 | 36041 ft | 396 kts | 316° |
| 2026-05-07 01:54 | 44.47675 | -117.16362 | 36037 ft | 396 kts | 316° |
| 2026-05-07 01:55 | 44.51568 | -117.21844 | 36036 ft | 396 kts | 316° |
| 2026-05-07 01:55 | 44.55432 | -117.27296 | 36041 ft | 396 kts | 316° |
| 2026-05-07 01:56 | 44.59319 | -117.32788 | 36038 ft | 396 kts | 316° |
| 2026-05-07 01:56 | 44.63181 | -117.38257 | 36034 ft | 395 kts | 316° |
| 2026-05-07 01:57 | 44.67050 | -117.43741 | 36040 ft | 395 kts | 316° |
| 2026-05-07 01:57 | 44.70921 | -117.49246 | 36047 ft | 396 kts | 316° |
| 2026-05-07 01:58 | 44.74789 | -117.54759 | 36052 ft | 396 kts | 316° |
| 2026-05-07 01:58 | 44.78664 | -117.60292 | 36061 ft | 396 kts | 315° |
| 2026-05-07 01:59 | 44.82503 | -117.65789 | 36074 ft | 395 kts | 315° |
| 2026-05-07 01:59 | 44.86354 | -117.71310 | 36078 ft | 395 kts | 315° |
| 2026-05-07 02:00 | 44.90201 | -117.76843 | 36076 ft | 394 kts | 315° |
| 2026-05-07 02:00 | 44.94044 | -117.82377 | 36074 ft | 394 kts | 315° |
| 2026-05-07 02:01 | 44.97882 | -117.87904 | 36073 ft | 394 kts | 315° |
| 2026-05-07 02:01 | 45.01715 | -117.93448 | 36062 ft | 394 kts | 315° |
| 2026-05-07 02:02 | 45.05528 | -117.98971 | 36064 ft | 394 kts | 315° |
| 2026-05-07 02:02 | 45.09360 | -118.04536 | 36069 ft | 394 kts | 315° |
| 2026-05-07 02:03 | 45.13197 | -118.10113 | 36068 ft | 394 kts | 315° |
| 2026-05-07 02:03 | 45.16999 | -118.15641 | 36075 ft | 394 kts | 315° |
| 2026-05-07 02:04 | 45.20823 | -118.21222 | 36079 ft | 394 kts | 315° |
| 2026-05-07 02:04 | 45.24638 | -118.26816 | 36107 ft | 394 kts | 314° |
| 2026-05-07 02:05 | 45.28453 | -118.32412 | 36109 ft | 394 kts | 315° |
| 2026-05-07 02:05 | 45.32267 | -118.38001 | 36110 ft | 393 kts | 314° |
| 2026-05-07 02:06 | 45.36045 | -118.43581 | 36110 ft | 394 kts | 314° |
| 2026-05-07 02:06 | 45.39853 | -118.49198 | 36109 ft | 394 kts | 314° |
| 2026-05-07 02:07 | 45.43657 | -118.54813 | 36088 ft | 394 kts | 314° |
| 2026-05-07 02:07 | 45.49356 | -118.63274 | 36049 ft | 394 kts | 314° |
| 2026-05-07 02:08 | 45.52537 | -118.68011 | 36037 ft | 395 kts | 314° |
| 2026-05-07 02:08 | 45.56333 | -118.73678 | 36024 ft | 394 kts | 314° |
| 2026-05-07 02:09 | 45.60110 | -118.79311 | 36014 ft | 394 kts | 314° |
| 2026-05-07 02:09 | 45.63907 | -118.84963 | 36014 ft | 394 kts | 314° |
| 2026-05-07 02:10 | 45.67696 | -118.90618 | 36014 ft | 393 kts | 314° |
| 2026-05-07 02:10 | 45.71429 | -118.96346 | 36003 ft | 394 kts | 312° |
| 2026-05-07 02:11 | 45.74970 | -119.02320 | 36001 ft | 393 kts | 310° |
| 2026-05-07 02:11 | 45.78457 | -119.08359 | 35992 ft | 392 kts | 310° |
| 2026-05-07 02:12 | 45.81946 | -119.14320 | 35990 ft | 392 kts | 311° |
| 2026-05-07 02:12 | 45.85472 | -119.20289 | 35966 ft | 392 kts | 311° |
| 2026-05-07 02:13 | 45.88994 | -119.26257 | 35966 ft | 392 kts | 311° |
| 2026-05-07 02:13 | 45.92516 | -119.32252 | 35969 ft | 392 kts | 311° |
| 2026-05-07 02:14 | 45.96011 | -119.38212 | 35966 ft | 392 kts | 311° |
| 2026-05-07 02:14 | 45.99538 | -119.44235 | 35962 ft | 393 kts | 311° |
| 2026-05-07 02:15 | 46.03051 | -119.50252 | 35957 ft | 392 kts | 310° |
| 2026-05-07 02:15 | 46.06561 | -119.56282 | 35949 ft | 392 kts | 310° |
| 2026-05-07 02:16 | 46.10040 | -119.62279 | 35947 ft | 392 kts | 310° |
| 2026-05-07 02:16 | 46.13536 | -119.68317 | 35946 ft | 392 kts | 310° |
| 2026-05-07 02:17 | 46.17034 | -119.74353 | 35945 ft | 392 kts | 310° |
| 2026-05-07 02:17 | 46.20522 | -119.80396 | 35956 ft | 391 kts | 310° |
| 2026-05-07 02:18 | 46.23997 | -119.86433 | 35956 ft | 390 kts | 310° |
| 2026-05-07 02:18 | 46.27458 | -119.92464 | 35953 ft | 389 kts | 310° |
| 2026-05-07 02:19 | 46.30891 | -119.98456 | 35964 ft | 389 kts | 310° |
| 2026-05-07 02:19 | 46.34343 | -120.04478 | 35969 ft | 389 kts | 310° |
| 2026-05-07 02:20 | 46.37794 | -120.10506 | 35960 ft | 388 kts | 310° |
| 2026-05-07 02:20 | 46.41229 | -120.16536 | 35972 ft | 388 kts | 309° |
| 2026-05-07 02:21 | 46.44659 | -120.22586 | 35982 ft | 387 kts | 309° |
| 2026-05-07 02:21 | 46.48064 | -120.28584 | 35995 ft | 387 kts | 309° |
| 2026-05-07 02:22 | 46.51476 | -120.34620 | 36017 ft | 386 kts | 309° |
| 2026-05-07 02:22 | 46.54879 | -120.40649 | 36016 ft | 385 kts | 309° |
| 2026-05-07 02:23 | 46.58222 | -120.46718 | 36014 ft | 384 kts | 307° |
| 2026-05-07 02:23 | 46.61279 | -120.53042 | 35989 ft | 384 kts | 305° |
| 2026-05-07 02:24 | 46.64251 | -120.59494 | 35978 ft | 384 kts | 305° |
| 2026-05-07 02:24 | 46.65754 | -120.62720 | 35807 ft | 386 kts | 305° |
| 2026-05-07 02:24 | 46.67277 | -120.65949 | 35558 ft | 386 kts | 305° |
| 2026-05-07 02:25 | 46.68806 | -120.69168 | 35314 ft | 387 kts | 305° |
| 2026-05-07 02:25 | 46.70349 | -120.72396 | 35075 ft | 388 kts | 306° |
| 2026-05-07 02:25 | 46.71894 | -120.75631 | 34835 ft | 389 kts | 305° |
| 2026-05-07 02:25 | 46.73421 | -120.78842 | 34596 ft | 390 kts | 305° |
| 2026-05-07 02:26 | 46.74967 | -120.82102 | 34374 ft | 392 kts | 305° |
| 2026-05-07 02:26 | 46.76517 | -120.85379 | 34146 ft | 393 kts | 305° |
| 2026-05-07 02:26 | 46.78070 | -120.88672 | 33898 ft | 394 kts | 305° |
| 2026-05-07 02:26 | 46.79626 | -120.91977 | 33632 ft | 395 kts | 305° |
| 2026-05-07 02:27 | 46.81193 | -120.95305 | 33405 ft | 396 kts | 305° |
| 2026-05-07 02:27 | 46.82758 | -120.98629 | 33134 ft | 397 kts | 305° |
| 2026-05-07 02:27 | 46.84307 | -121.01918 | 32880 ft | 398 kts | 305° |
| 2026-05-07 02:27 | 46.85879 | -121.05262 | 32620 ft | 399 kts | 305° |
| 2026-05-07 02:28 | 46.87458 | -121.08620 | 32362 ft | 400 kts | 305° |
| 2026-05-07 02:28 | 46.89034 | -121.11978 | 32109 ft | 401 kts | 304° |
| 2026-05-07 02:28 | 46.90609 | -121.15349 | 31855 ft | 402 kts | 304° |
| 2026-05-07 02:28 | 46.92185 | -121.18725 | 31271 ft | 404 kts | 304° |
| 2026-05-07 02:29 | 46.93765 | -121.22115 | 30247 ft | 412 kts | 304° |
| 2026-05-07 02:29 | 46.95393 | -121.25605 | 29078 ft | 419 kts | 304° |
| 2026-05-07 02:29 | 46.97044 | -121.29145 | 28009 ft | 423 kts | 304° |
| 2026-05-07 02:29 | 46.98709 | -121.32719 | 26901 ft | 426 kts | 304° |
| 2026-05-07 02:30 | 47.00390 | -121.36335 | 25782 ft | 431 kts | 304° |
| 2026-05-07 02:30 | 47.02084 | -121.39994 | 24711 ft | 435 kts | 304° |
| 2026-05-07 02:30 | 47.03800 | -121.43706 | 23675 ft | 439 kts | 304° |
| 2026-05-07 02:30 | 47.05498 | -121.47384 | 22532 ft | 441 kts | 304° |
| 2026-05-07 02:31 | 47.07202 | -121.51075 | 21918 ft | 431 kts | 303° |
| 2026-05-07 02:31 | 47.08870 | -121.54688 | 21212 ft | 423 kts | 303° |
| 2026-05-07 02:31 | 47.10509 | -121.58243 | 20488 ft | 417 kts | 303° |
| 2026-05-07 02:31 | 47.12127 | -121.61758 | 19768 ft | 412 kts | 303° |
| 2026-05-07 02:32 | 47.13719 | -121.65221 | 19071 ft | 406 kts | 303° |
| 2026-05-07 02:32 | 47.15287 | -121.68636 | 18388 ft | 401 kts | 302° |
| 2026-05-07 02:32 | 47.16836 | -121.72014 | 17587 ft | 396 kts | 302° |
| 2026-05-07 02:32 | 47.18367 | -121.75362 | 16798 ft | 392 kts | 302° |
| 2026-05-07 02:33 | 47.19880 | -121.78675 | 16018 ft | 388 kts | 302° |
| 2026-05-07 02:33 | 47.21376 | -121.81959 | 15276 ft | 385 kts | 302° |
| 2026-05-07 02:33 | 47.22860 | -121.85218 | 14497 ft | 383 kts | 302° |
| 2026-05-07 02:33 | 47.24323 | -121.88430 | 13387 ft | 372 kts | 302° |
| 2026-05-07 02:34 | 47.25762 | -121.91593 | 12546 ft | 377 kts | 302° |
| 2026-05-07 02:34 | 47.27220 | -121.94802 | 12215 ft | 377 kts | 302° |
| 2026-05-07 02:34 | 47.28676 | -121.98014 | 12044 ft | 377 kts | 302° |
| 2026-05-07 02:34 | 47.30129 | -122.01225 | 11993 ft | 377 kts | 302° |
| 2026-05-07 02:35 | 47.31583 | -122.04439 | 11907 ft | 375 kts | 302° |
| 2026-05-07 02:35 | 47.33021 | -122.07610 | 11208 ft | 370 kts | 302° |
| 2026-05-07 02:35 | 47.34464 | -122.10738 | 10474 ft | 368 kts | 306° |
| 2026-05-07 02:35 | 47.36356 | -122.13263 | 10120 ft | 364 kts | 326° |
| 2026-05-07 02:36 | 47.38672 | -122.14593 | 9978 ft | 353 kts | 346° |
| 2026-05-07 02:36 | 47.41004 | -122.14849 | 9990 ft | 316 kts | 353° |
| 2026-05-07 02:36 | 47.43088 | -122.14952 | 9994 ft | 288 kts | 353° |
| 2026-05-07 02:36 | 47.45049 | -122.15045 | 9465 ft | 277 kts | 353° |
| 2026-05-07 02:37 | 47.46964 | -122.15145 | 8676 ft | 274 kts | 354° |
| 2026-05-07 02:37 | 47.48865 | -122.15252 | 7917 ft | 271 kts | 354° |
| 2026-05-07 02:37 | 47.50727 | -122.15360 | 7183 ft | 269 kts | 355° |
| 2026-05-07 02:37 | 47.52591 | -122.15466 | 6443 ft | 266 kts | 356° |
| 2026-05-07 02:38 | 47.54444 | -122.15571 | 5655 ft | 265 kts | 356° |
| 2026-05-07 02:38 | 47.56292 | -122.15675 | 4846 ft | 266 kts | 356° |
| 2026-05-07 02:38 | 47.58139 | -122.15777 | 4018 ft | 266 kts | 356° |
| 2026-05-07 02:38 | 47.59986 | -122.15878 | 3399 ft | 271 kts | 357° |
| 2026-05-07 02:39 | 47.61852 | -122.15981 | 3222 ft | 267 kts | 357° |
| 2026-05-07 02:39 | 47.63704 | -122.16083 | 3199 ft | 266 kts | 357° |
| 2026-05-07 02:39 | 47.65547 | -122.16223 | 3199 ft | 262 kts | 351° |
| 2026-05-07 02:39 | 47.67148 | -122.17188 | 3197 ft | 241 kts | 319° |
| 2026-05-07 02:40 | 47.68094 | -122.19099 | 3201 ft | 221 kts | 285° |
| 2026-05-07 02:40 | 47.68394 | -122.21282 | 3204 ft | 217 kts | 271° |
| 2026-05-07 02:40 | 47.68424 | -122.23514 | 3202 ft | 216 kts | 267° |
| 2026-05-07 02:40 | 47.68349 | -122.25718 | 3200 ft | 208 kts | 255° |
| 2026-05-07 02:41 | 47.67703 | -122.27566 | 3229 ft | 202 kts | 230° |
| 2026-05-07 02:41 | 47.66775 | -122.29125 | 3206 ft | 202 kts | 226° |
| 2026-05-07 02:41 | 47.65803 | -122.30633 | 3206 ft | 202 kts | 224° |
| 2026-05-07 02:41 | 47.64614 | -122.31677 | 3201 ft | 202 kts | 190° |
| 2026-05-07 02:42 | 47.63207 | -122.31712 | 3204 ft | 203 kts | 179° |
| 2026-05-07 02:42 | 47.61790 | -122.31687 | 3202 ft | 204 kts | 180° |
| 2026-05-07 02:42 | 47.60385 | -122.31683 | 3194 ft | 197 kts | 180° |
| 2026-05-07 02:42 | 47.59043 | -122.31683 | 2994 ft | 192 kts | 181° |
| 2026-05-07 02:43 | 47.57716 | -122.31688 | 2746 ft | 188 kts | 181° |
| 2026-05-07 02:43 | 47.56428 | -122.31698 | 2479 ft | 183 kts | 181° |
| 2026-05-07 02:43 | 47.55168 | -122.31708 | 2228 ft | 178 kts | 181° |
| 2026-05-07 02:43 | 47.54004 | -122.31718 | 1997 ft | 158 kts | 181° |
| 2026-05-07 02:44 | 47.52963 | -122.31727 | 1779 ft | 143 kts | 182° |
| 2026-05-07 02:44 | 47.51984 | -122.31736 | 1580 ft | 138 kts | 182° |
| 2026-05-07 02:44 | 47.51026 | -122.31744 | 1399 ft | 137 kts | 183° |
| 2026-05-07 02:44 | 47.50079 | -122.31753 | 1207 ft | 136 kts | 182° |
| 2026-05-07 02:45 | 47.49141 | -122.31760 | 1014 ft | 136 kts | 182° |
| 2026-05-07 02:45 | 47.48188 | -122.31770 | 822 ft | 137 kts | 183° |
| 2026-05-07 02:45 | 47.47225 | -122.31780 | 649 ft | 136 kts | 184° |
| 2026-05-07 02:45 | 47.46295 | -122.31789 | 455 ft | 134 kts | 183° |
| 2026-05-07 02:46 | 47.45437 | -122.31796 | 402 ft | 97 kts | 180° |
| 2026-05-07 02:46 | 47.44993 | -122.31791 | 392 ft | 35 kts | 178° |
| 2026-05-07 02:46 | 47.44908 | -122.31764 | 391 ft | 17 kts | 157° |
| 2026-05-07 02:46 | 47.44740 | -122.31624 | 384 ft | 27 kts | 142° |
| 2026-05-07 02:47 | 47.44649 | -122.31410 | 388 ft | 21 kts | 98° |
| 2026-05-07 02:47 | 47.44645 | -122.31274 | 393 ft | 18 kts | 90° |
| 2026-05-07 02:47 | 47.44626 | -122.31111 | 394 ft | 15 kts | 116° |
| 2026-05-07 02:47 | 47.44528 | -122.31001 | 392 ft | 22 kts | 151° |
| 2026-05-07 02:48 | 47.44394 | -122.30886 | 392 ft | 21 kts | 144° |
| 2026-05-07 02:48 | 47.44347 | -122.30706 | 393 ft | 19 kts | 90° |
| 2026-05-07 02:48 | 47.44263 | -122.30635 | 390 ft | 16 kts | 182° |
| 2026-05-07 02:48 | 47.44140 | -122.30638 | 387 ft | 19 kts | 180° |
| 2026-05-07 02:49 | 47.44008 | -122.30633 | 384 ft | 11 kts | 164° |
| 2026-05-07 02:49 | 47.43992 | -122.30557 | 384 ft | 10 kts | 91° |
| 2026-05-07 02:49 | 47.43992 | -122.30413 | 386 ft | 14 kts | 88° |
| 2026-05-07 02:49 | 47.44018 | -122.30276 | 388 ft | 13 kts | 62° |
| 2026-05-07 02:50 | 47.44052 | -122.30172 | 390 ft | 9 kts | 80° |
| 2026-05-07 02:50 | 47.44027 | -122.30077 | 390 ft | 13 kts | 130° |
| 2026-05-07 02:50 | 47.43981 | -122.29981 | 390 ft | 8 kts | 94° |
| 2026-05-07 02:50 | 47.43999 | -122.29933 | 391 ft | 3 kts | 47° |
| 2026-05-07 02:51 | 47.44009 | -122.29918 | 391 ft | 2 kts | 45° |
| 2026-05-07 02:51 | 47.44016 | -122.29907 | 391 ft | 2 kts | 46° |
| 2026-05-07 02:51 | 47.44017 | -122.29906 | 391 ft | 0 kts | 46° |